createdAt,value
2018-05-17T04:03:42.513Z,99.90
2018-05-17T04:06:22.958Z,99.90
2018-05-17T04:08:53.176Z,99.90
2018-05-17T04:11:21.959Z,99.90
2018-05-17T04:13:51.427Z,99.90
2018-05-17T04:16:20.892Z,99.90
2018-05-17T04:18:50.258Z,99.90
2018-05-17T04:21:18.777Z,99.90
2018-05-17T04:23:47.504Z,99.90
2018-05-17T04:26:16.287Z,99.90
2018-05-17T04:28:45.064Z,99.90
2018-05-17T04:31:14.584Z,99.90
2018-05-17T04:33:43.782Z,99.90
2018-05-17T04:36:12.332Z,99.90
2018-05-17T04:38:41.490Z,99.90
2018-05-17T04:41:10.344Z,99.90
2018-05-17T04:43:39.620Z,99.90
2018-05-17T04:46:08.329Z,99.90
2018-05-17T04:48:37.935Z,99.90
2018-05-17T04:51:07.217Z,99.90
2018-05-17T04:53:35.922Z,99.90
2018-05-17T04:56:05.504Z,99.90
2018-05-17T04:58:33.993Z,99.90
2018-05-17T05:01:02.471Z,99.90
2018-05-17T05:03:31.252Z,99.90
2018-05-17T05:05:59.818Z,99.90
2018-05-17T05:08:30.293Z,99.90
2018-05-17T05:10:58.868Z,99.90
2018-05-17T05:13:27.380Z,99.90
2018-05-17T05:15:56.663Z,99.90
2018-05-17T05:18:26.195Z,99.90
2018-05-17T05:20:54.736Z,99.90
2018-05-17T05:23:23.853Z,99.90
2018-05-17T05:25:53.147Z,99.90
2018-05-17T05:28:21.671Z,99.90
2018-05-17T05:30:50.193Z,99.90
2018-05-17T05:33:18.724Z,99.90
2018-05-17T05:35:47.378Z,99.90
2018-05-17T05:38:16.033Z,99.90
2018-05-17T05:40:44.556Z,99.90
2018-05-17T05:43:19.530Z,99.90
2018-05-17T05:45:48.829Z,99.90
2018-05-17T05:48:17.738Z,99.90
2018-05-17T05:50:46.536Z,99.90
2018-05-17T05:53:15.896Z,99.90
2018-05-17T05:55:45.153Z,99.90
2018-05-17T05:58:13.895Z,99.90
2018-05-17T06:00:42.473Z,99.90
2018-05-17T06:03:11.510Z,99.90
2018-05-17T06:05:40.347Z,99.90
2018-05-17T06:08:10.204Z,99.90
2018-05-17T06:10:39.428Z,99.90
2018-05-17T06:13:07.911Z,99.90
2018-05-17T06:15:36.757Z,99.90
2018-05-17T06:18:05.283Z,99.90
2018-05-17T06:20:34.461Z,99.90
2018-05-17T06:23:03.315Z,99.90
2018-05-17T06:25:33.167Z,99.90
2018-05-17T06:28:02.019Z,99.90
2018-05-17T06:30:31.327Z,99.90
2018-05-17T06:33:00.745Z,99.90
2018-05-17T06:35:29.578Z,99.90
2018-05-17T06:37:58.406Z,99.90
2018-05-17T06:40:27.252Z,99.90
2018-05-17T06:42:56.093Z,99.90
2018-05-17T06:45:25.937Z,99.90
2018-05-17T06:47:54.794Z,99.90
2018-05-17T06:50:24.113Z,98.40
2018-05-17T06:52:52.754Z,98.80
2018-05-17T06:55:22.240Z,99.90
2018-05-17T06:57:51.179Z,99.90
2018-05-17T07:00:21.033Z,99.90
2018-05-17T07:02:49.871Z,99.90
2018-05-17T07:05:19.768Z,71.40
2018-05-17T07:07:48.890Z,72.30
2018-05-17T07:10:18.577Z,97.70
2018-05-17T07:12:48.037Z,97.70
2018-05-17T07:15:17.128Z,98.70
2018-05-17T07:17:45.944Z,85.20
2018-05-17T07:20:15.700Z,99.90
2018-05-17T07:22:45.680Z,86.50
2018-05-17T07:25:15.971Z,81.30
2018-05-17T07:27:44.684Z,80.40
2018-05-17T07:30:13.485Z,91.00
2018-05-17T07:32:42.271Z,63.10
2018-05-17T07:35:11.120Z,86.60
2018-05-17T07:37:39.947Z,75.30
2018-05-17T07:40:08.785Z,77.10
2018-05-17T07:42:38.470Z,85.50
2018-05-17T07:45:07.645Z,81.70
2018-05-17T07:47:36.428Z,95.50
2018-05-17T07:50:05.300Z,88.60
2018-05-17T07:52:34.128Z,89.80
2018-05-17T07:55:02.942Z,62.70
2018-05-17T07:57:32.429Z,49.50
2018-05-17T08:00:01.405Z,42.40
2018-05-17T08:02:30.279Z,52.00
2018-05-17T08:04:59.128Z,50.30
2018-05-17T08:07:27.984Z,40.80
2018-05-17T08:09:57.022Z,41.00
2018-05-17T08:12:26.947Z,38.80
2018-05-17T08:14:56.573Z,41.80
2018-05-17T08:17:25.610Z,41.80
2018-05-17T08:19:54.380Z,39.60
2018-05-17T08:22:23.168Z,37.50
2018-05-17T08:24:52.042Z,38.90
2018-05-17T08:27:20.861Z,39.30
2018-05-17T08:29:49.624Z,36.70
2018-05-17T08:32:18.395Z,38.00
2018-05-17T08:34:48.176Z,36.30
2018-05-17T08:37:17.040Z,36.20
2018-05-17T08:39:45.864Z,35.50
2018-05-17T08:42:14.723Z,38.20
2018-05-17T08:44:43.560Z,42.00
2018-05-17T08:47:12.866Z,44.30
2018-05-17T08:49:41.824Z,46.30
2018-05-17T08:52:10.335Z,46.30
2018-05-17T08:54:39.955Z,48.60
2018-05-17T08:57:09.791Z,52.90
2018-05-17T08:59:38.647Z,52.70
2018-05-17T09:02:07.305Z,49.10
2018-05-17T09:04:35.852Z,45.40
2018-05-17T09:07:04.412Z,41.90
2018-05-17T09:09:34.156Z,44.20
2018-05-17T09:12:02.977Z,44.40
2018-05-17T09:14:31.799Z,44.60
2018-05-17T09:17:00.741Z,37.40
2018-05-17T09:19:29.679Z,36.90
2018-05-17T09:21:58.419Z,33.40
2018-05-17T09:24:27.215Z,31.80
2018-05-17T09:26:55.969Z,36.60
2018-05-17T09:29:25.760Z,34.20
2018-05-17T09:31:54.611Z,34.20
2018-05-17T09:34:23.443Z,35.00
2018-05-17T09:36:53.314Z,39.00
2018-05-17T09:39:23.160Z,47.50
2018-05-17T09:41:51.987Z,47.60
2018-05-17T09:44:20.829Z,42.80
2018-05-17T09:46:49.737Z,40.20
2018-05-17T09:49:18.843Z,37.90
2018-05-17T09:51:47.681Z,38.80
2018-05-17T09:54:16.477Z,38.40
2018-05-17T09:56:45.264Z,38.00
2018-05-17T09:59:13.995Z,44.40
2018-05-17T10:01:42.924Z,42.70
2018-05-17T10:04:11.685Z,44.60
2018-05-17T10:06:41.402Z,39.70
2018-05-17T10:09:11.354Z,37.20
2018-05-17T10:11:41.476Z,37.20
2018-05-17T10:14:11.165Z,34.50
2018-05-17T10:16:39.880Z,34.40
2018-05-17T10:19:08.663Z,36.50
2018-05-17T10:21:37.465Z,38.50
2018-05-17T10:24:06.353Z,39.40
2018-05-17T10:26:35.464Z,36.80
2018-05-17T10:29:04.189Z,38.90
2018-05-17T10:31:33.829Z,39.00
2018-05-17T10:34:03.697Z,40.10
2018-05-17T10:36:32.527Z,40.10
2018-05-17T10:39:01.955Z,36.10
2018-05-17T10:41:30.729Z,31.20
2018-05-17T10:43:59.326Z,36.10
2018-05-17T10:46:27.818Z,32.00
2018-05-17T10:48:56.815Z,32.50
2018-05-17T10:51:25.631Z,33.40
2018-05-17T10:53:54.572Z,38.80
2018-05-17T10:56:23.393Z,34.10
2018-05-17T10:58:52.220Z,36.70
2018-05-17T11:01:21.211Z,40.60
2018-05-17T11:03:50.496Z,44.80
2018-05-17T11:06:19.616Z,44.90
2018-05-17T11:08:49.473Z,45.50
2018-05-17T11:11:18.320Z,45.30
2018-05-17T11:13:48.156Z,37.70
2018-05-17T11:16:17.035Z,37.60
2018-05-17T11:18:46.888Z,42.10
2018-05-17T11:21:16.249Z,41.80
2018-05-17T11:23:44.897Z,37.90
2018-05-17T11:26:14.428Z,36.60
2018-05-17T11:28:43.110Z,38.80
2018-05-17T11:31:12.113Z,37.90
2018-05-17T11:33:41.981Z,39.80
2018-05-17T11:36:10.835Z,39.70
2018-05-17T11:38:39.864Z,47.20
2018-05-17T11:41:08.654Z,45.10
2018-05-17T11:43:37.352Z,44.20
2018-05-17T11:46:06.441Z,44.70
2018-05-17T11:48:35.211Z,44.80
2018-05-17T11:51:04.050Z,46.40
2018-05-17T11:53:32.922Z,47.80
2018-05-17T11:56:01.698Z,45.50
2018-05-17T11:58:30.449Z,40.00
2018-05-17T12:01:00.300Z,44.20
2018-05-17T12:03:30.119Z,44.30
2018-05-17T12:06:00.008Z,39.80
2018-05-17T12:08:28.855Z,39.70
2018-05-17T12:10:57.687Z,46.30
2018-05-17T12:13:26.528Z,39.10
2018-05-17T12:15:55.367Z,46.20
2018-05-17T12:18:25.282Z,42.30
2018-05-17T12:20:54.822Z,42.30
2018-05-17T12:23:23.942Z,42.30
2018-05-17T12:25:52.782Z,43.00
2018-05-17T12:28:21.625Z,43.60
2018-05-17T12:30:50.464Z,43.00
2018-05-17T12:33:19.323Z,47.60
2018-05-17T12:35:48.530Z,48.60
2018-05-17T12:38:17.297Z,48.30
2018-05-17T12:40:46.108Z,49.00
2018-05-17T12:43:15.701Z,45.50
2018-05-17T12:45:44.601Z,45.60
2018-05-17T12:48:14.394Z,47.90
2018-05-17T12:50:43.262Z,48.10
2018-05-17T12:53:13.097Z,47.20
2018-05-17T12:55:42.860Z,47.30
2018-05-17T12:58:11.808Z,48.20
2018-05-17T13:00:40.656Z,54.60
2018-05-17T13:03:09.501Z,55.40
2018-05-17T13:05:39.204Z,49.70
2018-05-17T13:08:08.201Z,50.90
2018-05-17T13:10:37.066Z,40.40
2018-05-17T13:13:05.953Z,44.60
2018-05-17T13:15:34.856Z,44.30
2018-05-17T13:18:03.593Z,43.00
2018-05-17T13:20:33.523Z,39.20
2018-05-17T13:23:02.264Z,39.10
2018-05-17T13:25:31.105Z,40.00
2018-05-17T13:27:59.948Z,38.30
2018-05-17T13:30:28.855Z,42.00
2018-05-17T13:32:57.635Z,40.10
2018-05-17T13:35:26.489Z,48.40
2018-05-17T13:37:55.329Z,43.60
2018-05-17T13:40:24.175Z,42.80
2018-05-17T13:42:53.008Z,43.70
2018-05-17T13:45:21.856Z,45.90
2018-05-17T13:47:50.691Z,46.10
2018-05-17T13:50:20.162Z,40.00
2018-05-17T13:52:49.388Z,42.30
2018-05-17T13:55:18.219Z,46.10
2018-05-17T13:57:47.069Z,46.80
2018-05-17T14:00:15.904Z,44.40
2018-05-17T14:02:46.384Z,51.10
2018-05-17T14:07:54.607Z,41.50
2018-05-17T14:10:25.703Z,43.90
2018-05-17T14:12:54.603Z,43.90
2018-05-17T14:15:23.740Z,43.20
2018-05-17T14:17:53.290Z,46.50
2018-05-17T14:20:22.492Z,46.50
2018-05-17T14:22:51.679Z,46.60
2018-05-17T14:25:21.516Z,47.00
2018-05-17T14:27:50.369Z,47.00
2018-05-17T14:30:19.214Z,48.30
2018-05-17T14:32:47.791Z,51.20
2018-05-17T14:35:16.890Z,49.60
2018-05-17T14:37:45.737Z,50.30
2018-05-17T14:40:15.600Z,56.10
2018-05-17T14:42:44.421Z,56.00
2018-05-17T14:45:13.261Z,59.30
2018-05-17T14:47:42.100Z,48.40
2018-05-17T14:50:10.929Z,51.90
2018-05-17T14:52:40.036Z,49.90
2018-05-17T14:55:08.915Z,47.70
2018-05-17T14:57:37.763Z,55.60
2018-05-17T15:00:06.292Z,58.00
2018-05-17T15:02:36.163Z,44.50
2018-05-17T15:05:04.983Z,44.50
2018-05-17T15:07:34.818Z,48.20
2018-05-17T15:10:03.672Z,48.30
2018-05-17T15:12:32.501Z,45.00
2018-05-17T15:15:01.348Z,47.10
2018-05-17T15:17:30.778Z,53.50
2018-05-17T15:20:00.330Z,51.70
2018-05-17T15:22:29.959Z,51.70
2018-05-17T15:24:59.814Z,48.00
2018-05-17T15:27:29.378Z,48.00
2018-05-17T15:29:58.534Z,48.70
2018-05-17T15:32:27.496Z,45.30
2018-05-17T15:34:56.991Z,49.20
2018-05-17T15:37:26.032Z,46.30
2018-05-17T15:39:55.836Z,49.60
2018-05-17T15:42:24.825Z,47.60
2018-05-17T15:44:54.612Z,52.60
2018-05-17T15:47:24.420Z,51.90
2018-05-17T15:49:54.264Z,51.90
2018-05-17T15:52:24.112Z,54.10
2018-05-17T15:54:53.015Z,54.10
2018-05-17T15:57:21.810Z,51.60
2018-05-17T15:59:56.308Z,55.00
2018-05-17T16:02:24.908Z,52.50
2018-05-17T16:04:53.604Z,52.80
2018-05-17T16:07:21.841Z,52.30
2018-05-17T16:09:50.462Z,53.20
2018-05-17T16:12:18.749Z,58.70
2018-05-17T16:14:48.338Z,57.30
2018-05-17T16:17:17.951Z,53.50
2018-05-17T16:19:47.207Z,54.60
2018-05-17T16:22:17.214Z,54.90
2018-05-17T16:24:46.485Z,46.50
2018-05-17T16:27:15.493Z,48.10
2018-05-17T16:29:44.305Z,59.90
2018-05-17T16:32:13.864Z,53.20
2018-05-17T16:34:43.484Z,53.00
2018-05-17T16:37:12.959Z,53.50
2018-05-17T16:39:41.573Z,52.40
2018-05-17T16:42:10.476Z,66.10
2018-05-17T16:44:40.028Z,78.10
2018-05-17T16:47:09.009Z,91.20
2018-05-17T16:49:37.968Z,94.50
2018-05-17T16:52:07.563Z,93.20
2018-05-17T16:54:36.667Z,94.60
2018-05-17T16:57:05.566Z,97.00
2018-05-17T16:59:34.269Z,79.50
2018-05-17T17:02:03.125Z,95.70
2018-05-17T17:04:32.134Z,97.90
2018-05-17T17:07:01.932Z,99.90
2018-05-17T17:09:30.826Z,99.90
2018-05-17T17:11:59.716Z,99.90
2018-05-17T17:14:29.023Z,99.90
2018-05-17T17:16:59.471Z,97.60
2018-05-17T17:19:28.941Z,97.80
2018-05-17T17:21:57.922Z,99.90
2018-05-17T17:24:27.043Z,99.90
2018-05-17T17:26:55.835Z,99.90
2018-05-17T17:29:24.607Z,99.90
2018-05-17T17:31:54.074Z,99.90
2018-05-17T17:34:23.048Z,99.90
2018-05-17T17:36:52.036Z,99.90
2018-05-17T17:39:20.977Z,99.90
2018-05-17T17:41:50.673Z,99.90
2018-05-17T17:44:19.523Z,99.90
2018-05-17T17:46:48.345Z,99.90
2018-05-17T17:49:17.212Z,99.90
2018-05-17T17:51:46.131Z,99.90
2018-05-17T17:54:16.037Z,99.90
2018-05-17T17:56:45.502Z,99.90
2018-05-17T17:59:15.057Z,99.90
2018-05-17T18:01:44.571Z,99.90
2018-05-17T18:04:16.123Z,99.90
2018-05-17T18:06:45.285Z,99.90
2018-05-17T18:09:13.959Z,99.90
2018-05-17T18:11:42.797Z,99.90
2018-05-17T18:14:11.567Z,99.90
2018-05-17T18:16:40.335Z,99.90
2018-05-17T18:19:14.358Z,99.90
2018-05-17T18:21:43.308Z,99.90
2018-05-17T18:24:11.875Z,99.90
2018-05-17T18:26:40.891Z,99.90
2018-05-17T18:29:09.737Z,99.90
2018-05-17T18:31:38.468Z,99.90
2018-05-17T18:34:07.345Z,99.90
2018-05-17T18:36:37.032Z,99.90
2018-05-17T18:39:05.096Z,99.90
2018-05-17T18:41:33.897Z,99.90
2018-05-17T18:44:02.700Z,99.90
2018-05-17T18:46:32.343Z,99.90
2018-05-17T18:49:01.268Z,99.90
2018-05-17T18:51:29.985Z,99.90
2018-05-17T18:53:58.540Z,99.90
2018-05-17T18:56:27.111Z,99.90
2018-05-17T18:58:55.771Z,99.90
2018-05-17T19:01:24.524Z,99.90
2018-05-17T19:03:53.114Z,99.90
2018-05-17T19:06:21.659Z,99.90
2018-05-17T19:08:50.946Z,99.90
2018-05-17T19:11:20.456Z,99.90
2018-05-17T19:13:49.159Z,99.90
2018-05-17T19:16:18.686Z,99.90
2018-05-17T19:18:47.508Z,99.90
2018-05-17T19:21:16.891Z,99.90
2018-05-17T19:23:45.736Z,99.90
2018-05-17T19:26:14.549Z,99.90
2018-05-17T19:28:43.526Z,99.90
2018-05-17T19:31:12.591Z,99.90
2018-05-17T19:33:41.111Z,99.90
2018-05-17T19:36:11.895Z,99.90
2018-05-17T19:38:41.654Z,99.90
2018-05-17T19:41:10.466Z,99.90
2018-05-17T19:43:39.138Z,99.90
2018-05-17T19:46:08.151Z,99.90
2018-05-17T19:48:37.009Z,99.90
2018-05-17T19:51:06.071Z,99.90
2018-05-17T19:53:34.962Z,99.90
2018-05-17T19:56:04.489Z,99.90
2018-05-17T19:58:33.319Z,99.90
2018-05-17T20:01:02.224Z,99.90
2018-05-17T20:03:30.808Z,99.90
2018-05-17T20:05:59.791Z,99.90
2018-05-17T20:08:28.473Z,99.90
2018-05-17T20:10:57.542Z,99.90
2018-05-17T20:13:26.418Z,99.90
2018-05-17T20:15:55.796Z,99.90
2018-05-17T20:18:24.877Z,99.90
2018-05-17T20:20:53.790Z,99.90
2018-05-17T20:23:22.858Z,99.90
2018-05-17T20:25:52.758Z,99.90
2018-05-17T20:28:21.486Z,99.90
2018-05-17T20:30:50.488Z,99.90
2018-05-17T20:33:20.149Z,99.90
2018-05-17T20:35:49.059Z,99.90
2018-05-17T20:38:17.792Z,99.90
2018-05-17T20:40:47.352Z,99.90
2018-05-17T20:43:16.183Z,99.90
2018-05-17T20:45:46.006Z,99.90
2018-05-17T20:48:15.848Z,99.90
2018-05-17T20:50:44.675Z,99.90
2018-05-17T20:53:13.510Z,99.90
2018-05-17T20:55:42.328Z,99.90
2018-05-17T20:58:10.913Z,99.90
2018-05-17T21:00:39.530Z,99.90
2018-05-17T21:03:08.025Z,99.90
2018-05-17T21:05:37.631Z,99.90
2018-05-17T21:08:06.457Z,99.90
2018-05-17T21:10:35.291Z,99.90
2018-05-17T21:13:04.143Z,99.90
2018-05-17T21:15:33.064Z,99.90
2018-05-17T21:18:01.954Z,99.90
2018-05-17T21:20:30.664Z,99.90
2018-05-17T21:23:00.014Z,99.90
2018-05-17T21:25:28.554Z,99.90
2018-05-17T21:27:59.425Z,99.90
2018-05-17T21:30:28.873Z,99.90
2018-05-17T21:32:57.834Z,99.90
2018-05-17T21:35:26.639Z,99.90
2018-05-17T21:37:55.503Z,99.90
2018-05-17T21:40:24.035Z,99.90
2018-05-17T21:42:53.072Z,99.90
2018-05-17T21:45:21.913Z,99.90
2018-05-17T21:47:50.728Z,99.90
2018-05-17T21:50:19.569Z,99.90
2018-05-17T21:52:48.409Z,99.90
2018-05-17T21:55:17.196Z,99.90
2018-05-17T21:57:45.748Z,99.90
2018-05-17T22:00:14.844Z,99.90
